Incentive — ZCOF2 — position and weather

sailwx.info

Track history (hours):
 
Tides and Currents Weather Stations Pressure Air Temp Water Temp Dewpoint Dewpoint Depression Visibility Wind Speed Wind Dir Waves Ship Positions

Incentive

Last reported at 2018-Feb-23 23:00 UTC. Time now 2018-Feb-24 00:54 UTC.
Position N 25°47' W 080°11'.

Length 43 m; draft 2.5 m.

Type: Pleasure craft. MMSI: 319795000.

Date/timePositionNaut miles runAvg speedWind from/ knotsBaromVisibWave heightAir tempDewpointWater temp
2018-Feb-23 23:00N 25°47' W 080°11'0 0.0
2018-Feb-23 22:30N 25°47' W 080°11'0 0.0
2018-Feb-23 22:00N 25°47' W 080°11'0 0.0
2018-Feb-23 21:31N 25°47' W 080°11'0 0.0
2018-Feb-23 21:01N 25°47' W 080°11'0 0.0
2018-Feb-23 20:30N 25°47' W 080°11'0 0.0
2018-Feb-23 20:00N 25°47' W 080°11'0 0.0
2018-Feb-23 19:30N 25°47' W 080°11'0 0.0
2018-Feb-23 19:00N 25°47' W 080°11'0 0.0
2018-Feb-23 18:31N 25°47' W 080°11'0 0.0
2018-Feb-23 18:00N 25°47' W 080°11'0 0.0
2018-Feb-23 17:30N 25°47' W 080°11'0 0.0
2018-Feb-23 17:00N 25°47' W 080°11'0 0.0
2018-Feb-23 16:30N 25°47' W 080°11'0 0.0
2018-Feb-23 16:00N 25°47' W 080°11'0 0.0
2018-Feb-23 15:30N 25°47' W 080°11'0 0.0
2018-Feb-23 15:00N 25°47' W 080°11'0 0.0
2018-Feb-23 14:29N 25°47' W 080°11'0 0.0
2018-Feb-23 14:00N 25°47' W 080°11'0 0.0
2018-Feb-23 13:31N 25°47' W 080°11'0 0.0
2018-Feb-23 13:00N 25°47' W 080°11'0 0.0
2018-Feb-23 12:30N 25°47' W 080°11'0 0.0
2018-Feb-23 12:00N 25°47' W 080°11'0 0.0
2018-Feb-23 11:30N 25°47' W 080°11'0 0.0
2018-Feb-23 11:01N 25°47' W 080°11'0 0.0
2018-Feb-23 10:30N 25°47' W 080°11'0 0.0
2018-Feb-23 10:00N 25°47' W 080°11'0 0.0
2018-Feb-23 09:30N 25°47' W 080°11'0 0.0
2018-Feb-23 09:00N 25°47' W 080°11'0 0.0
2018-Feb-23 08:30N 25°47' W 080°11'0 0.0
2018-Feb-23 08:00N 25°47' W 080°11'0 0.0
2018-Feb-23 07:31N 25°47' W 080°11'0 0.0
2018-Feb-23 07:01N 25°47' W 080°11'0 0.0
2018-Feb-23 06:30N 25°47' W 080°11'0 0.0
2018-Feb-23 06:00N 25°47' W 080°11'0 0.0
2018-Feb-23 05:31N 25°47' W 080°11'0 0.0
2018-Feb-23 05:00N 25°47' W 080°11'0 0.0
2018-Feb-23 04:30N 25°47' W 080°11'0 0.0
2018-Feb-23 04:01N 25°47' W 080°11'0 0.0
2018-Feb-23 03:31N 25°47' W 080°11'0 0.0
2018-Feb-23 03:01N 25°47' W 080°11'0 0.0
2018-Feb-23 02:31N 25°47' W 080°11'0 0.0
2018-Feb-23 02:00N 25°47' W 080°11'0 0.0
2018-Feb-23 01:31N 25°47' W 080°11'0 0.0
2018-Feb-23 01:00N 25°47' W 080°11'0 0.0
2018-Feb-23 00:31N 25°47' W 080°11'0 0.0
2018-Feb-23 00:00N 25°47' W 080°11'0 0.0
2018-Feb-22 23:30N 25°47' W 080°11'0 0.0
2018-Feb-22 23:00N 25°47' W 080°11'0 0.0
2018-Feb-22 22:30N 25°47' W 080°11'0 0.0
2018-Feb-22 22:01N 25°47' W 080°11'0 0.0
2018-Feb-22 21:30N 25°47' W 080°11'0 0.0
2018-Feb-22 21:01N 25°47' W 080°11'0 0.0
2018-Feb-22 20:30N 25°47' W 080°11'0 0.0
2018-Feb-22 20:01N 25°47' W 080°11'1 1.8
2018-Feb-22 19:30N 25°48' W 080°11'3 6.2
2018-Feb-22 19:00N 25°51' W 080°10'1 2.0
2018-Feb-22 18:30N 25°52' W 080°10'3 5.9
2018-Feb-22 18:00N 25°54' W 080°08'3 6.5
2018-Feb-22 17:30N 25°58' W 080°07'3 6.6
2018-Feb-22 17:00N 26°01' W 080°07'2 5.0
2018-Feb-22 16:30N 26°03' W 080°07'3 5.8
2018-Feb-22 16:00N 26°06' W 080°07'2 4.4
2018-Feb-22 15:31N 26°08' W 080°06'0 0.1
2018-Feb-22 15:00N 26°08' W 080°07'0 0.0
2018-Feb-22 14:30N 26°08' W 080°07'0 0.0
2018-Feb-22 13:58N 26°08' W 080°07'0 0.0
2018-Feb-22 13:30N 26°08' W 080°07'0 0.0
2018-Feb-22 13:00N 26°08' W 080°07'0 0.0
2018-Feb-22 12:31N 26°08' W 080°07'0 0.0
2018-Feb-22 12:01N 26°08' W 080°07'0 0.0
2018-Feb-22 11:31N 26°08' W 080°07'0 0.0
2018-Feb-22 11:01N 26°08' W 080°07'0 0.0
2018-Feb-22 10:30N 26°08' W 080°07'0 0.0
2018-Feb-22 10:00N 26°08' W 080°07'0 0.0
2018-Feb-22 09:30N 26°08' W 080°07'0 0.0
2018-Feb-22 09:00N 26°08' W 080°07'0 0.0
2018-Feb-22 08:30N 26°08' W 080°07'0 0.0
2018-Feb-22 08:00N 26°08' W 080°07'0 0.0
2018-Feb-22 07:30N 26°08' W 080°07'0 0.0
2018-Feb-22 07:00N 26°08' W 080°07'0 0.0
2018-Feb-22 06:30N 26°08' W 080°07'0 0.0
2018-Feb-22 06:00N 26°08' W 080°07'0 0.0
2018-Feb-22 05:29N 26°08' W 080°07'0 0.0
2018-Feb-22 05:00N 26°08' W 080°07'0 0.0
2018-Feb-22 04:30N 26°08' W 080°07'0 0.0
2018-Feb-22 04:00N 26°08' W 080°07'0 0.0
2018-Feb-22 03:30N 26°08' W 080°07'0 0.0
2018-Feb-22 03:00N 26°08' W 080°07'0 0.0
2018-Feb-22 02:31N 26°08' W 080°07'0 0.0
2018-Feb-22 02:00N 26°08' W 080°07'0 0.0
2018-Feb-22 01:29N 26°08' W 080°07'0 0.0
2018-Feb-22 01:00N 26°08' W 080°07'0 0.0
2018-Feb-22 00:30N 26°08' W 080°07'0 0.0
2018-Feb-22 00:00N 26°08' W 080°07'0 0.0
2018-Feb-21 23:31N 26°08' W 080°07'0 0.0
2018-Feb-21 23:00N 26°08' W 080°07'0 0.0
2018-Feb-21 22:31N 26°08' W 080°07'0 0.0
2018-Feb-21 22:00N 26°08' W 080°07'0 0.0
2018-Feb-21 21:30N 26°08' W 080°07'0 0.0
2018-Feb-21 21:00N 26°08' W 080°07'0 0.0
2018-Feb-21 20:28N 26°08' W 080°07'0 0.0
2018-Feb-21 20:01N 26°08' W 080°07'0 0.0
2018-Feb-21 19:31N 26°08' W 080°07'0 0.0
2018-Feb-21 19:01N 26°08' W 080°07'0 0.0
2018-Feb-21 18:29N 26°08' W 080°07'0 0.0
2018-Feb-21 17:59N 26°08' W 080°07'0 0.0
2018-Feb-21 17:30N 26°08' W 080°07'0 0.0
2018-Feb-21 16:58N 26°08' W 080°07'0 0.0
2018-Feb-21 16:31N 26°08' W 080°07'0 0.0
2018-Feb-21 16:00N 26°08' W 080°07'0 0.0
2018-Feb-21 15:30N 26°08' W 080°07'0 0.0
2018-Feb-21 15:00N 26°08' W 080°07'0 0.0
2018-Feb-21 14:28N 26°08' W 080°07'0 0.0
2018-Feb-21 14:00N 26°08' W 080°07'0 0.0
2018-Feb-21 13:30N 26°08' W 080°07'0 0.0
2018-Feb-21 13:00N 26°08' W 080°07'0 0.0
2018-Feb-21 12:31N 26°08' W 080°07'0 0.0
2018-Feb-21 12:01N 26°08' W 080°07'0 0.0
2018-Feb-21 11:29N 26°08' W 080°07'0 0.0
2018-Feb-21 11:00N 26°08' W 080°07'0 0.0
2018-Feb-21 10:30N 26°08' W 080°07'0 0.0
2018-Feb-21 10:00N 26°08' W 080°07'0 0.0
2018-Feb-21 09:30N 26°08' W 080°07'0 0.0
2018-Feb-21 09:00N 26°08' W 080°07'0 0.0
2018-Feb-21 08:30N 26°08' W 080°07'0 0.0
2018-Feb-21 08:00N 26°08' W 080°07'0 0.0
2018-Feb-21 07:31N 26°08' W 080°07'0 0.0
2018-Feb-21 07:00N 26°08' W 080°07'0 0.0
2018-Feb-21 06:31N 26°08' W 080°07'0 0.0
2018-Feb-21 06:00N 26°08' W 080°07'0 0.0
2018-Feb-21 05:30N 26°08' W 080°07'0 0.0
2018-Feb-21 04:59N 26°08' W 080°07'0 0.0
2018-Feb-21 04:31N 26°08' W 080°07'0 0.0
2018-Feb-21 04:00N 26°08' W 080°07'0 0.0
2018-Feb-21 03:30N 26°08' W 080°07'0 0.0
2018-Feb-21 03:00N 26°08' W 080°07'0 0.0
2018-Feb-21 02:30N 26°08' W 080°07'0 0.0
2018-Feb-21 02:01N 26°08' W 080°07'0 0.0
2018-Feb-21 01:29N 26°08' W 080°07'0 0.0
2018-Feb-21 01:00N 26°08' W 080°07'0 0.0
2018-Feb-21 00:30N 26°08' W 080°07'0 0.0
2018-Feb-21 00:01N 26°08' W 080°07'0 0.0
2018-Feb-20 23:31N 26°08' W 080°07'0 0.0
2018-Feb-20 23:00N 26°08' W 080°07'0 0.0
2018-Feb-20 22:30N 26°08' W 080°07'0 0.0
2018-Feb-20 21:57N 26°08' W 080°07'0 0.0
2018-Feb-20 21:30N 26°08' W 080°07'0 0.0
2018-Feb-20 21:00N 26°08' W 080°07'0 0.0
2018-Feb-20 20:27N 26°08' W 080°07'0 0.0
2018-Feb-20 19:53N 26°08' W 080°07'0 0.0
2018-Feb-20 19:29N 26°08' W 080°07'0 0.0
2018-Feb-20 18:59N 26°08' W 080°07'0 0.0
2018-Feb-20 18:29N 26°08' W 080°07'0 0.0
2018-Feb-20 17:31N 26°08' W 080°07'0 0.0
2018-Feb-20 17:26N 26°08' W 080°07'0 0.6
2018-Feb-20 17:00N 26°08' W 080°07'1 3.0
2018-Feb-20 16:30N 26°07' W 080°07'3 5.2
2018-Feb-20 16:00N 26°06' W 080°04'611.3
2018-Feb-20 15:30N 26°06' W 079°58'510.7
2018-Feb-20 15:00N 26°06' W 079°52'510.5
2018-Feb-20 14:30N 26°06' W 079°46'611.0
2018-Feb-20 14:00N 26°06' W 079°40'611.1
2018-Feb-20 13:28N 26°06' W 079°34'  
Track history (hours):
 
Tides and Currents Weather Stations Pressure Air Temp Water Temp Dewpoint Dewpoint Depression Visibility Wind Speed Wind Dir Waves Ship Positions

Incentive

Last reported at 2018-Feb-23 23:00 UTC. Time now 2018-Feb-24 00:54 UTC.
Position N 25°47' W 080°11'.

Length 43 m; draft 2.5 m.

Type: Pleasure craft. MMSI: 319795000.

Date/timePositionNaut miles runAvg speedWind from/ knotsBaromVisibWave heightAir tempDewpointWater temp
2018-Feb-23 23:00N 25°47' W 080°11'0 0.0
2018-Feb-23 22:30N 25°47' W 080°11'0 0.0
2018-Feb-23 22:00N 25°47' W 080°11'0 0.0
2018-Feb-23 21:31N 25°47' W 080°11'0 0.0
2018-Feb-23 21:01N 25°47' W 080°11'0 0.0
2018-Feb-23 20:30N 25°47' W 080°11'0 0.0
2018-Feb-23 20:00N 25°47' W 080°11'0 0.0
2018-Feb-23 19:30N 25°47' W 080°11'0 0.0
2018-Feb-23 19:00N 25°47' W 080°11'0 0.0
2018-Feb-23 18:31N 25°47' W 080°11'0 0.0
2018-Feb-23 18:00N 25°47' W 080°11'0 0.0
2018-Feb-23 17:30N 25°47' W 080°11'0 0.0
2018-Feb-23 17:00N 25°47' W 080°11'0 0.0
2018-Feb-23 16:30N 25°47' W 080°11'0 0.0
2018-Feb-23 16:00N 25°47' W 080°11'0 0.0
2018-Feb-23 15:30N 25°47' W 080°11'0 0.0
2018-Feb-23 15:00N 25°47' W 080°11'0 0.0
2018-Feb-23 14:29N 25°47' W 080°11'0 0.0
2018-Feb-23 14:00N 25°47' W 080°11'0 0.0
2018-Feb-23 13:31N 25°47' W 080°11'0 0.0
2018-Feb-23 13:00N 25°47' W 080°11'0 0.0
2018-Feb-23 12:30N 25°47' W 080°11'0 0.0
2018-Feb-23 12:00N 25°47' W 080°11'0 0.0
2018-Feb-23 11:30N 25°47' W 080°11'0 0.0
2018-Feb-23 11:01N 25°47' W 080°11'0 0.0
2018-Feb-23 10:30N 25°47' W 080°11'0 0.0
2018-Feb-23 10:00N 25°47' W 080°11'0 0.0
2018-Feb-23 09:30N 25°47' W 080°11'0 0.0
2018-Feb-23 09:00N 25°47' W 080°11'0 0.0
2018-Feb-23 08:30N 25°47' W 080°11'0 0.0
2018-Feb-23 08:00N 25°47' W 080°11'0 0.0
2018-Feb-23 07:31N 25°47' W 080°11'0 0.0
2018-Feb-23 07:01N 25°47' W 080°11'0 0.0
2018-Feb-23 06:30N 25°47' W 080°11'0 0.0
2018-Feb-23 06:00N 25°47' W 080°11'0 0.0
2018-Feb-23 05:31N 25°47' W 080°11'0 0.0
2018-Feb-23 05:00N 25°47' W 080°11'0 0.0
2018-Feb-23 04:30N 25°47' W 080°11'0 0.0
2018-Feb-23 04:01N 25°47' W 080°11'0 0.0
2018-Feb-23 03:31N 25°47' W 080°11'0 0.0
2018-Feb-23 03:01N 25°47' W 080°11'0 0.0
2018-Feb-23 02:31N 25°47' W 080°11'0 0.0
2018-Feb-23 02:00N 25°47' W 080°11'0 0.0
2018-Feb-23 01:31N 25°47' W 080°11'0 0.0
2018-Feb-23 01:00N 25°47' W 080°11'0 0.0
2018-Feb-23 00:31N 25°47' W 080°11'0 0.0
2018-Feb-23 00:00N 25°47' W 080°11'0 0.0
2018-Feb-22 23:30N 25°47' W 080°11'0 0.0
2018-Feb-22 23:00N 25°47' W 080°11'0 0.0
2018-Feb-22 22:30N 25°47' W 080°11'0 0.0
2018-Feb-22 22:01N 25°47' W 080°11'0 0.0
2018-Feb-22 21:30N 25°47' W 080°11'0 0.0
2018-Feb-22 21:01N 25°47' W 080°11'0 0.0
2018-Feb-22 20:30N 25°47' W 080°11'0 0.0
2018-Feb-22 20:01N 25°47' W 080°11'1 1.8
2018-Feb-22 19:30N 25°48' W 080°11'3 6.2
2018-Feb-22 19:00N 25°51' W 080°10'1 2.0
2018-Feb-22 18:30N 25°52' W 080°10'3 5.9
2018-Feb-22 18:00N 25°54' W 080°08'3 6.5
2018-Feb-22 17:30N 25°58' W 080°07'3 6.6
2018-Feb-22 17:00N 26°01' W 080°07'2 5.0
2018-Feb-22 16:30N 26°03' W 080°07'3 5.8
2018-Feb-22 16:00N 26°06' W 080°07'2 4.4
2018-Feb-22 15:31N 26°08' W 080°06'0 0.1
2018-Feb-22 15:00N 26°08' W 080°07'0 0.0
2018-Feb-22 14:30N 26°08' W 080°07'0 0.0
2018-Feb-22 13:58N 26°08' W 080°07'0 0.0
2018-Feb-22 13:30N 26°08' W 080°07'0 0.0
2018-Feb-22 13:00N 26°08' W 080°07'0 0.0
2018-Feb-22 12:31N 26°08' W 080°07'0 0.0
2018-Feb-22 12:01N 26°08' W 080°07'0 0.0
2018-Feb-22 11:31N 26°08' W 080°07'0 0.0
2018-Feb-22 11:01N 26°08' W 080°07'0 0.0
2018-Feb-22 10:30N 26°08' W 080°07'0 0.0
2018-Feb-22 10:00N 26°08' W 080°07'0 0.0
2018-Feb-22 09:30N 26°08' W 080°07'0 0.0
2018-Feb-22 09:00N 26°08' W 080°07'0 0.0
2018-Feb-22 08:30N 26°08' W 080°07'0 0.0
2018-Feb-22 08:00N 26°08' W 080°07'0 0.0
2018-Feb-22 07:30N 26°08' W 080°07'0 0.0
2018-Feb-22 07:00N 26°08' W 080°07'0 0.0
2018-Feb-22 06:30N 26°08' W 080°07'0 0.0
2018-Feb-22 06:00N 26°08' W 080°07'0 0.0
2018-Feb-22 05:29N 26°08' W 080°07'0 0.0
2018-Feb-22 05:00N 26°08' W 080°07'0 0.0
2018-Feb-22 04:30N 26°08' W 080°07'0 0.0
2018-Feb-22 04:00N 26°08' W 080°07'0 0.0
2018-Feb-22 03:30N 26°08' W 080°07'0 0.0
2018-Feb-22 03:00N 26°08' W 080°07'0 0.0
2018-Feb-22 02:31N 26°08' W 080°07'0 0.0
2018-Feb-22 02:00N 26°08' W 080°07'0 0.0
2018-Feb-22 01:29N 26°08' W 080°07'0 0.0
2018-Feb-22 01:00N 26°08' W 080°07'0 0.0
2018-Feb-22 00:30N 26°08' W 080°07'0 0.0
2018-Feb-22 00:00N 26°08' W 080°07'0 0.0
2018-Feb-21 23:31N 26°08' W 080°07'0 0.0
2018-Feb-21 23:00N 26°08' W 080°07'0 0.0
2018-Feb-21 22:31N 26°08' W 080°07'0 0.0
2018-Feb-21 22:00N 26°08' W 080°07'0 0.0
2018-Feb-21 21:30N 26°08' W 080°07'0 0.0
2018-Feb-21 21:00N 26°08' W 080°07'0 0.0
2018-Feb-21 20:28N 26°08' W 080°07'0 0.0
2018-Feb-21 20:01N 26°08' W 080°07'0 0.0
2018-Feb-21 19:31N 26°08' W 080°07'0 0.0
2018-Feb-21 19:01N 26°08' W 080°07'0 0.0
2018-Feb-21 18:29N 26°08' W 080°07'0 0.0
2018-Feb-21 17:59N 26°08' W 080°07'0 0.0
2018-Feb-21 17:30N 26°08' W 080°07'0 0.0
2018-Feb-21 16:58N 26°08' W 080°07'0 0.0
2018-Feb-21 16:31N 26°08' W 080°07'0 0.0
2018-Feb-21 16:00N 26°08' W 080°07'0 0.0
2018-Feb-21 15:30N 26°08' W 080°07'0 0.0
2018-Feb-21 15:00N 26°08' W 080°07'0 0.0
2018-Feb-21 14:28N 26°08' W 080°07'0 0.0
2018-Feb-21 14:00N 26°08' W 080°07'0 0.0
2018-Feb-21 13:30N 26°08' W 080°07'0 0.0
2018-Feb-21 13:00N 26°08' W 080°07'0 0.0
2018-Feb-21 12:31N 26°08' W 080°07'0 0.0
2018-Feb-21 12:01N 26°08' W 080°07'0 0.0
2018-Feb-21 11:29N 26°08' W 080°07'0 0.0
2018-Feb-21 11:00N 26°08' W 080°07'0 0.0
2018-Feb-21 10:30N 26°08' W 080°07'0 0.0
2018-Feb-21 10:00N 26°08' W 080°07'0 0.0
2018-Feb-21 09:30N 26°08' W 080°07'0 0.0
2018-Feb-21 09:00N 26°08' W 080°07'0 0.0
2018-Feb-21 08:30N 26°08' W 080°07'0 0.0
2018-Feb-21 08:00N 26°08' W 080°07'0 0.0
2018-Feb-21 07:31N 26°08' W 080°07'0 0.0
2018-Feb-21 07:00N 26°08' W 080°07'0 0.0
2018-Feb-21 06:31N 26°08' W 080°07'0 0.0
2018-Feb-21 06:00N 26°08' W 080°07'0 0.0
2018-Feb-21 05:30N 26°08' W 080°07'0 0.0
2018-Feb-21 04:59N 26°08' W 080°07'0 0.0
2018-Feb-21 04:31N 26°08' W 080°07'0 0.0
2018-Feb-21 04:00N 26°08' W 080°07'0 0.0
2018-Feb-21 03:30N 26°08' W 080°07'0 0.0
2018-Feb-21 03:00N 26°08' W 080°07'0 0.0
2018-Feb-21 02:30N 26°08' W 080°07'0 0.0
2018-Feb-21 02:01N 26°08' W 080°07'0 0.0
2018-Feb-21 01:29N 26°08' W 080°07'0 0.0
2018-Feb-21 01:00N 26°08' W 080°07'0 0.0
2018-Feb-21 00:30N 26°08' W 080°07'0 0.0
2018-Feb-21 00:01N 26°08' W 080°07'0 0.0
2018-Feb-20 23:31N 26°08' W 080°07'0 0.0
2018-Feb-20 23:00N 26°08' W 080°07'0 0.0
2018-Feb-20 22:30N 26°08' W 080°07'0 0.0
2018-Feb-20 21:57N 26°08' W 080°07'0 0.0
2018-Feb-20 21:30N 26°08' W 080°07'0 0.0
2018-Feb-20 21:00N 26°08' W 080°07'0 0.0
2018-Feb-20 20:27N 26°08' W 080°07'0 0.0
2018-Feb-20 19:53N 26°08' W 080°07'0 0.0
2018-Feb-20 19:29N 26°08' W 080°07'0 0.0
2018-Feb-20 18:59N 26°08' W 080°07'0 0.0
2018-Feb-20 18:29N 26°08' W 080°07'0 0.0
2018-Feb-20 17:31N 26°08' W 080°07'0 0.0
2018-Feb-20 17:26N 26°08' W 080°07'0 0.6
2018-Feb-20 17:00N 26°08' W 080°07'1 3.0
2018-Feb-20 16:30N 26°07' W 080°07'3 5.2
2018-Feb-20 16:00N 26°06' W 080°04'611.3
2018-Feb-20 15:30N 26°06' W 079°58'510.7
2018-Feb-20 15:00N 26°06' W 079°52'510.5
2018-Feb-20 14:30N 26°06' W 079°46'611.0
2018-Feb-20 14:00N 26°06' W 079°40'611.1
2018-Feb-20 13:28N 26°06' W 079°34'  

Dump ship's entire track history